createdAt,value
2022-10-23T00:02:17.986Z,49.03
2022-10-23T00:05:20.790Z,48.17
2022-10-23T00:08:22.210Z,51.88
2022-10-23T00:11:26.226Z,47.10
2022-10-23T00:14:27.626Z,53.53
2022-10-23T00:17:29.013Z,35.17
2022-10-23T00:20:30.423Z,37.67
2022-10-23T00:23:31.917Z,39.03
2022-10-23T00:26:33.307Z,39.65
2022-10-23T00:29:34.748Z,44.92
2022-10-23T00:32:37.314Z,43.58
2022-10-23T00:35:40.071Z,48.25
2022-10-23T00:38:41.580Z,43.55
2022-10-23T00:41:43.020Z,45.13
2022-10-23T00:44:44.865Z,35.75
2022-10-23T00:47:47.776Z,42.95
2022-10-23T00:50:50.299Z,44.90
2022-10-23T00:54:12.689Z,38.55
2022-10-23T00:57:18.931Z,45.17
2022-10-23T01:00:43.589Z,53.53
2022-10-23T01:03:45.581Z,53.50
2022-10-23T01:07:19.822Z,49.20
2022-10-23T01:10:31.820Z,52.45
2022-10-23T01:13:44.370Z,56.85
2022-10-23T01:16:58.629Z,51.72
2022-10-23T01:20:10.827Z,63.83
2022-10-23T01:23:26.279Z,59.35
2022-10-23T01:26:39.711Z,61.38
2022-10-23T01:30:03.270Z,56.17
2022-10-23T01:33:16.684Z,60.80
2022-10-23T01:36:27.726Z,61.83
2022-10-23T01:39:38.642Z,55.35
2022-10-23T01:42:47.114Z,58.35
2022-10-23T01:45:57.669Z,49.88
2022-10-23T01:49:02.309Z,65.38
2022-10-23T01:52:08.417Z,55.33
2022-10-23T01:55:13.239Z,53.60
2022-10-23T01:58:18.920Z,52.72
2022-10-23T02:01:24.263Z,61.15
2022-10-23T02:04:33.852Z,58.47
2022-10-23T02:07:36.256Z,49.85
2022-10-23T02:10:46.753Z,57.28
2022-10-23T02:13:48.090Z,61.53
2022-10-23T02:20:03.013Z,54.72
2022-10-23T02:23:24.355Z,66.47
2022-10-23T02:26:34.051Z,58.30
2022-10-23T02:29:46.922Z,62.75
2022-10-23T02:32:52.782Z,61.47
2022-10-23T02:35:54.466Z,59.15
2022-10-23T02:38:57.564Z,64.97
2022-10-23T02:42:11.893Z,64.45
2022-10-23T02:45:32.362Z,62.60
2022-10-23T02:48:42.784Z,57.10
2022-10-23T02:51:57.931Z,61.53
2022-10-23T02:55:05.331Z,55.45
2022-10-23T02:58:39.693Z,62.65
2022-10-23T03:02:01.404Z,67.25
2022-10-23T03:05:05.251Z,57.65
2022-10-23T03:08:11.955Z,64.97
2022-10-23T03:11:13.409Z,57.90
2022-10-23T03:14:14.839Z,56.45
2022-10-23T03:17:16.273Z,63.72
2022-10-23T03:20:21.133Z,61.08
2022-10-23T03:23:22.573Z,62.92
2022-10-23T03:26:24.032Z,60.08
2022-10-23T03:29:25.494Z,55.75
2022-10-23T03:32:27.131Z,61.88
2022-10-23T03:35:28.675Z,59.78
2022-10-23T03:38:30.153Z,60.83
2022-10-23T03:41:32.202Z,62.42
2022-10-23T03:44:33.593Z,53.58
2022-10-23T03:47:35.192Z,51.03
2022-10-23T03:50:36.680Z,44.97
2022-10-23T03:53:39.866Z,48.15
2022-10-23T03:56:41.286Z,50.00
2022-10-23T03:59:43.623Z,47.35
2022-10-23T04:02:45.442Z,46.22
2022-10-23T04:05:50.005Z,46.35
2022-10-23T04:08:51.571Z,48.33
2022-10-23T04:11:55.750Z,53.38
2022-10-23T04:15:00.581Z,50.00
2022-10-23T04:18:02.587Z,60.80
2022-10-23T04:21:05.815Z,50.33
2022-10-23T04:24:07.944Z,51.05
2022-10-23T04:27:09.384Z,45.83
2022-10-23T04:30:11.454Z,50.20
2022-10-23T04:33:13.537Z,39.70
2022-10-23T04:36:15.050Z,44.85
2022-10-23T04:39:16.480Z,44.58
2022-10-23T04:42:17.955Z,40.28
2022-10-23T04:45:19.880Z,48.95
2022-10-23T04:48:24.433Z,38.67
2022-10-23T04:51:48.774Z,35.90
2022-10-23T04:55:09.300Z,35.58
2022-10-23T04:58:33.612Z,31.50
2022-10-23T05:01:36.592Z,32.60
2022-10-23T05:04:40.621Z,32.35
2022-10-23T05:08:17.841Z,30.42
2022-10-23T05:11:38.629Z,29.73
2022-10-23T05:14:43.045Z,32.90
2022-10-23T05:17:49.368Z,29.17
2022-10-23T05:20:57.203Z,27.75
2022-10-23T05:27:00.370Z,25.75
2022-10-23T05:30:06.287Z,26.60
2022-10-23T05:33:11.657Z,25.70
2022-10-23T05:36:16.727Z,29.00
2022-10-23T05:39:19.871Z,30.58
2022-10-23T05:42:21.802Z,27.40
2022-10-23T05:45:24.224Z,29.42
2022-10-23T05:48:54.631Z,34.97
2022-10-23T05:52:14.642Z,39.58
2022-10-23T05:55:28.357Z,26.52
2022-10-23T05:58:47.629Z,24.90
2022-10-23T06:01:59.104Z,25.38
2022-10-23T06:05:10.816Z,29.40
2022-10-23T06:08:44.264Z,26.73
2022-10-23T06:11:47.074Z,29.15
2022-10-23T06:14:53.886Z,29.15
2022-10-23T06:18:02.581Z,31.65
2022-10-23T06:21:07.775Z,33.78
2022-10-23T06:24:10.175Z,30.92
2022-10-23T06:27:34.312Z,25.42
2022-10-23T06:30:39.271Z,26.05
2022-10-23T06:33:41.426Z,31.38
2022-10-23T06:36:44.296Z,32.30
2022-10-23T06:40:02.368Z,24.15
2022-10-23T06:43:23.745Z,30.55
2022-10-23T06:46:47.385Z,39.17
2022-10-23T06:50:11.704Z,27.20
2022-10-23T06:53:17.337Z,30.30
2022-10-23T06:56:25.242Z,27.05
2022-10-23T06:59:26.797Z,33.60
2022-10-23T07:02:28.410Z,26.20
2022-10-23T07:05:29.936Z,24.80
2022-10-23T07:08:32.423Z,27.17
2022-10-23T07:11:37.196Z,29.52
2022-10-23T07:14:38.665Z,19.35
2022-10-23T07:17:41.249Z,20.20
2022-10-23T07:20:43.320Z,20.02
2022-10-23T07:23:44.843Z,18.55
2022-10-23T07:26:47.550Z,19.08
2022-10-23T07:29:51.068Z,16.73
2022-10-23T07:32:52.655Z,18.95
2022-10-23T07:36:23.176Z,25.42
2022-10-23T07:39:24.642Z,16.48
2022-10-23T07:42:27.229Z,12.90
2022-10-23T07:45:28.671Z,17.15
2022-10-23T07:48:30.594Z,18.42
2022-10-23T07:51:35.629Z,20.80
2022-10-23T07:54:38.396Z,18.50
2022-10-23T07:58:12.402Z,19.17
2022-10-23T08:01:38.815Z,14.52
2022-10-23T08:04:58.981Z,13.52
2022-10-23T08:08:39.486Z,15.15
2022-10-23T08:12:01.849Z,15.05
2022-10-23T08:15:22.649Z,14.82
2022-10-23T08:18:52.084Z,15.85
2022-10-23T08:22:12.983Z,15.20
2022-10-23T08:25:34.101Z,23.38
2022-10-23T08:28:54.048Z,13.82
2022-10-23T08:32:15.397Z,17.70
2022-10-23T08:35:38.842Z,13.05
2022-10-23T08:38:41.417Z,13.65
2022-10-23T08:45:33.174Z,15.48
2022-10-23T08:48:55.024Z,16.00
2022-10-23T08:52:31.828Z,13.60
2022-10-23T08:55:37.192Z,13.63
2022-10-23T08:59:15.304Z,13.25
2022-10-23T09:02:42.179Z,14.63
2022-10-23T09:06:12.011Z,12.43
2022-10-23T09:09:39.845Z,14.45
2022-10-23T09:12:41.858Z,11.60
2022-10-23T09:15:49.524Z,12.48
2022-10-23T09:18:52.009Z,11.80
2022-10-23T09:21:55.265Z,17.02
2022-10-23T09:24:56.690Z,14.60
2022-10-23T09:28:02.802Z,12.07
2022-10-23T09:31:11.929Z,14.18
2022-10-23T09:34:19.736Z,12.43
2022-10-23T09:37:27.074Z,12.55
2022-10-23T09:40:40.251Z,16.70
2022-10-23T09:43:41.681Z,12.77
2022-10-23T09:46:45.616Z,12.25
2022-10-23T09:49:50.034Z,13.82
2022-10-23T09:52:54.767Z,12.35
2022-10-23T09:56:00.006Z,12.05
2022-10-23T09:59:22.105Z,14.63
2022-10-23T10:02:32.686Z,15.65
2022-10-23T10:06:03.252Z,11.93
2022-10-23T10:09:13.305Z,11.38
2022-10-23T10:12:35.349Z,15.30
2022-10-23T10:15:52.673Z,12.27
2022-10-23T10:19:36.479Z,10.13
2022-10-23T10:22:51.188Z,11.63
2022-10-23T10:25:59.991Z,14.35
2022-10-23T10:29:35.280Z,9.95
2022-10-23T10:33:02.276Z,12.90
2022-10-23T10:36:40.972Z,11.05
2022-10-23T10:40:08.483Z,9.80
2022-10-23T10:43:35.133Z,11.52
2022-10-23T10:46:59.245Z,11.30
2022-10-23T10:50:21.566Z,9.68
2022-10-23T10:54:00.651Z,11.85
2022-10-23T10:57:10.034Z,13.30
2022-10-23T11:00:20.800Z,9.55
2022-10-23T11:03:39.857Z,13.25
2022-10-23T11:06:45.504Z,15.57
2022-10-23T11:09:47.384Z,10.00
2022-10-23T11:12:49.720Z,11.75
2022-10-23T11:19:11.232Z,8.02
2022-10-23T11:22:50.407Z,9.73
2022-10-23T11:26:20.118Z,8.32
2022-10-23T11:29:40.373Z,10.93
2022-10-23T11:33:19.182Z,10.18
2022-10-23T11:36:41.134Z,8.65
2022-10-23T11:39:54.600Z,10.60
2022-10-23T11:42:56.178Z,7.93
2022-10-23T11:45:58.156Z,8.70
2022-10-23T11:48:59.742Z,8.60
2022-10-23T11:52:03.596Z,8.18
2022-10-23T11:55:25.786Z,7.45
2022-10-23T11:58:41.071Z,10.98
2022-10-23T12:01:44.434Z,7.20
2022-10-23T12:04:51.267Z,9.50
2022-10-23T12:08:03.766Z,9.95
2022-10-23T12:11:05.381Z,10.95
2022-10-23T12:14:45.113Z,8.52
2022-10-23T12:17:48.643Z,11.82
2022-10-23T12:21:02.593Z,11.02
2022-10-23T12:24:51.199Z,9.68
2022-10-23T12:28:21.265Z,8.98
2022-10-23T12:31:44.273Z,7.63
2022-10-23T12:35:24.029Z,7.03
2022-10-23T12:38:30.180Z,11.77
2022-10-23T12:41:34.711Z,7.63
2022-10-23T12:44:36.273Z,9.48
2022-10-23T12:50:49.118Z,11.60
2022-10-23T12:53:51.157Z,11.25
2022-10-23T12:56:53.307Z,8.85
2022-10-23T12:59:57.759Z,8.30
2022-10-23T13:03:04.011Z,7.75
2022-10-23T13:06:05.849Z,7.05
2022-10-23T13:09:22.397Z,9.48
2022-10-23T13:12:50.441Z,9.60
2022-10-23T13:15:51.918Z,12.30
2022-10-23T13:18:53.313Z,10.10
2022-10-23T13:21:54.829Z,7.35
2022-10-23T13:24:56.236Z,10.13
2022-10-23T13:28:21.055Z,9.18
2022-10-23T13:31:29.306Z,8.13
2022-10-23T13:34:31.010Z,8.52
2022-10-23T13:37:33.367Z,10.23
2022-10-23T13:40:35.080Z,7.82
2022-10-23T13:43:36.609Z,10.75
2022-10-23T13:46:38.125Z,7.13
2022-10-23T13:49:39.580Z,9.23
2022-10-23T13:52:41.003Z,9.60
2022-10-23T13:55:45.158Z,10.43
2022-10-23T13:58:48.042Z,7.45
2022-10-23T14:01:50.549Z,11.88
2022-10-23T14:04:52.084Z,12.25
2022-10-23T14:07:53.490Z,6.20
2022-10-23T14:10:54.891Z,8.75
2022-10-23T14:13:56.343Z,9.13
2022-10-23T14:16:57.748Z,11.00
2022-10-23T14:19:59.148Z,12.82
2022-10-23T14:23:00.651Z,7.28
2022-10-23T14:26:03.344Z,10.05
2022-10-23T14:29:08.973Z,10.27
2022-10-23T14:32:12.886Z,8.30
2022-10-23T14:35:14.404Z,7.75
2022-10-23T14:38:15.916Z,10.05
2022-10-23T14:41:18.083Z,8.95
2022-10-23T14:44:19.629Z,7.13
2022-10-23T14:47:21.067Z,10.68
2022-10-23T14:50:22.519Z,10.30
2022-10-23T14:53:23.952Z,13.73
2022-10-23T14:56:26.384Z,6.72
2022-10-23T14:59:27.937Z,6.72
2022-10-23T15:02:29.374Z,13.98
2022-10-23T15:05:30.796Z,10.05
2022-10-23T15:08:32.352Z,12.40
2022-10-23T15:11:33.817Z,10.95
2022-10-23T15:14:35.275Z,8.10
2022-10-23T15:17:36.662Z,7.65
2022-10-23T15:20:38.089Z,10.15
2022-10-23T15:23:41.948Z,7.85
2022-10-23T15:26:43.426Z,12.02
2022-10-23T15:29:45.121Z,7.50
2022-10-23T15:32:46.529Z,10.85
2022-10-23T15:35:48.442Z,11.45
2022-10-23T15:38:50.607Z,9.70
2022-10-23T15:41:55.325Z,7.70
2022-10-23T15:44:56.732Z,7.63
2022-10-23T15:47:58.143Z,9.60
2022-10-23T15:50:59.525Z,8.85
2022-10-23T15:54:01.021Z,12.50
2022-10-23T15:57:03.396Z,10.82
2022-10-23T16:00:07.216Z,7.15
2022-10-23T16:03:10.172Z,7.45
2022-10-23T16:06:14.143Z,8.40
2022-10-23T16:12:17.062Z,7.00
2022-10-23T16:15:18.502Z,12.60
2022-10-23T16:18:20.770Z,7.38
2022-10-23T16:21:24.973Z,10.48
2022-10-23T16:24:26.404Z,11.52
2022-10-23T16:27:27.894Z,11.15
2022-10-23T16:30:29.498Z,10.07
2022-10-23T16:33:30.898Z,6.38
2022-10-23T16:36:33.349Z,7.43
2022-10-23T16:39:53.115Z,4.95
2022-10-23T16:43:13.025Z,11.85
2022-10-23T16:46:20.753Z,7.97
2022-10-23T16:49:22.220Z,12.75
2022-10-23T16:52:24.061Z,5.82
2022-10-23T16:55:25.472Z,7.40
2022-10-23T16:58:27.376Z,8.77
2022-10-23T17:01:31.398Z,8.02
2022-10-23T17:07:34.292Z,7.97
2022-10-23T17:10:35.725Z,6.20
2022-10-23T17:13:41.357Z,9.70
2022-10-23T17:16:46.874Z,8.93
2022-10-23T17:19:48.328Z,8.80
2022-10-23T17:22:49.837Z,12.30
2022-10-23T17:25:51.940Z,12.05
2022-10-23T17:28:53.419Z,8.20
2022-10-23T17:31:54.951Z,10.18
2022-10-23T17:34:56.404Z,7.60
2022-10-23T17:37:57.907Z,9.30
2022-10-23T17:40:59.358Z,8.00
2022-10-23T17:44:01.186Z,6.68
2022-10-23T17:47:02.636Z,8.02
2022-10-23T17:50:04.342Z,11.07
2022-10-23T17:53:06.057Z,9.10
2022-10-23T17:56:12.194Z,6.25
2022-10-23T17:59:15.870Z,9.45
2022-10-23T18:02:17.355Z,10.75
2022-10-23T18:05:18.837Z,11.13
2022-10-23T18:08:20.263Z,8.52
2022-10-23T18:11:24.934Z,11.98
2022-10-23T18:14:29.372Z,14.77
2022-10-23T18:17:32.218Z,7.07
2022-10-23T18:20:40.501Z,8.75
2022-10-23T18:23:42.390Z,10.60
2022-10-23T18:26:44.358Z,8.23
2022-10-23T18:29:45.751Z,10.15
2022-10-23T18:32:47.166Z,12.65
2022-10-23T18:35:49.204Z,8.98
2022-10-23T18:38:51.062Z,10.95
2022-10-23T18:41:55.487Z,11.45
2022-10-23T18:44:56.900Z,11.07
2022-10-23T18:47:58.397Z,12.85
2022-10-23T18:50:59.824Z,12.48
2022-10-23T18:54:08.696Z,9.20
2022-10-23T18:57:10.257Z,14.63
2022-10-23T19:00:12.682Z,10.73
2022-10-23T19:03:14.647Z,16.85
2022-10-23T19:06:16.819Z,16.08
2022-10-23T19:09:19.142Z,19.52
2022-10-23T19:12:21.196Z,14.90
2022-10-23T19:15:22.870Z,12.45
2022-10-23T19:18:24.293Z,13.13
2022-10-23T19:21:28.584Z,6.63
2022-10-23T19:24:53.135Z,15.13
2022-10-23T19:27:56.590Z,3.65
2022-10-23T19:30:59.527Z,4.57
2022-10-23T19:34:01.042Z,5.50
2022-10-23T19:37:02.521Z,5.40
2022-10-23T19:40:07.744Z,4.45
2022-10-23T19:43:09.140Z,4.47
2022-10-23T19:46:12.245Z,4.13
2022-10-23T19:49:14.153Z,7.57
2022-10-23T19:52:15.544Z,8.45
2022-10-23T19:55:17.030Z,6.65
2022-10-23T19:58:18.453Z,7.72
2022-10-23T20:01:23.099Z,7.65
2022-10-23T20:04:24.595Z,10.00
2022-10-23T20:07:26.081Z,13.50
2022-10-23T20:10:27.508Z,10.80
2022-10-23T20:13:29.195Z,11.95
2022-10-23T20:16:34.318Z,9.32
2022-10-23T20:19:35.767Z,15.00
2022-10-23T20:22:39.530Z,17.23
2022-10-23T20:25:43.325Z,15.38
2022-10-23T20:28:45.731Z,14.82
2022-10-23T20:31:47.231Z,13.38
2022-10-23T20:34:48.633Z,13.43
2022-10-23T20:37:50.180Z,17.00
2022-10-23T20:40:51.613Z,17.40
2022-10-23T20:43:53.593Z,19.80
2022-10-23T20:46:55.566Z,14.90
2022-10-23T20:49:56.993Z,21.75
2022-10-23T20:52:58.405Z,24.60
2022-10-23T20:55:59.798Z,18.40
2022-10-23T20:59:04.314Z,12.02
2022-10-23T21:02:06.015Z,12.88
2022-10-23T21:05:08.041Z,10.13
2022-10-23T21:08:09.482Z,8.55
2022-10-23T21:11:13.869Z,8.07
2022-10-23T21:14:15.449Z,8.00
2022-10-23T21:17:16.866Z,5.45
2022-10-23T21:20:18.308Z,7.28
2022-10-23T21:23:20.037Z,5.20
2022-10-23T21:26:23.884Z,5.72
2022-10-23T21:29:25.330Z,5.68
2022-10-23T21:32:26.757Z,5.57
2022-10-23T21:35:30.016Z,5.15
2022-10-23T21:38:31.708Z,10.80
2022-10-23T21:41:34.158Z,4.45
2022-10-23T21:44:35.603Z,7.93
2022-10-23T21:47:37.460Z,5.70
2022-10-23T21:50:38.974Z,7.38
2022-10-23T21:53:40.405Z,5.80
2022-10-23T21:56:47.299Z,5.25
2022-10-23T21:59:48.838Z,5.75
2022-10-23T22:02:50.263Z,8.05
2022-10-23T22:05:51.806Z,5.22
2022-10-23T22:08:55.454Z,4.40
2022-10-23T22:11:57.126Z,3.47
2022-10-23T22:14:58.530Z,8.10
2022-10-23T22:17:59.947Z,7.18
2022-10-23T22:21:03.595Z,4.50
2022-10-23T22:24:05.489Z,7.75
2022-10-23T22:27:06.983Z,7.05
2022-10-23T22:30:08.673Z,5.72
2022-10-23T22:33:10.100Z,4.95
2022-10-23T22:36:12.190Z,8.32
2022-10-23T22:39:13.645Z,5.40
2022-10-23T22:42:15.044Z,5.32
2022-10-23T22:45:16.572Z,5.18
2022-10-23T22:48:17.969Z,6.22
2022-10-23T22:51:21.396Z,10.50
2022-10-23T22:54:22.830Z,6.50
2022-10-23T22:57:24.245Z,5.68
2022-10-23T23:00:25.690Z,6.32
2022-10-23T23:03:27.145Z,6.07
2022-10-23T23:06:28.921Z,6.53
2022-10-23T23:09:30.393Z,8.45
2022-10-23T23:12:31.822Z,6.35
2022-10-23T23:15:33.282Z,7.25
2022-10-23T23:18:34.951Z,9.32
2022-10-23T23:21:36.385Z,4.90
2022-10-23T23:24:38.741Z,8.65
2022-10-23T23:27:40.356Z,6.53
2022-10-23T23:30:42.703Z,7.22
2022-10-23T23:33:45.183Z,6.03
2022-10-23T23:36:46.622Z,12.18
2022-10-23T23:39:48.027Z,6.88
2022-10-23T23:42:49.600Z,13.13
2022-10-23T23:45:51.014Z,8.57
2022-10-23T23:48:52.483Z,7.95
2022-10-23T23:51:53.902Z,8.85
2022-10-23T23:54:55.292Z,10.95
2022-10-23T23:57:56.690Z,10.07
